Time;durP1;ratioP1;P1;durP2;ratioP2;P2;SDS_P1;SDS_P2;PMS_P1;PMS_P2;Temp;Humidity;BMP_temperature;BMP_pressure;BME280_temperature;BME280_humidity;BME280_pressure;Samples;Min_cycle;Max_cycle;Signal;HPM_P1;HPM_P2
2023/01/02 00:01:30;;;;;;;3.05;2.08;;;;;;;;;;5005839;28;20219;-87
2023/01/02 00:03:58;;;;;;;3.70;2.47;;;;;;;;;;5019382;28;20311;-87
2023/01/02 00:06:27;;;;;;;3.15;2.47;;;;;;;;;;5030863;28;20219;-88
2023/01/02 00:08:54;;;;;;;1.67;1.58;;;;;;;;;;5017302;28;20207;-87
2023/01/02 00:11:22;;;;;;;3.70;2.00;;;;;;;;;;5011639;28;20195;-87
2023/01/02 00:13:49;;;;;;;2.63;1.95;;;;;;;;;;5034240;28;20250;-86
2023/01/02 00:16:17;;;;;;;2.50;2.30;;;;;;;;;;5017930;28;20223;-87
2023/01/02 00:18:45;;;;;;;24.05;2.72;;;;;;;;;;5017865;28;20199;-87
2023/01/02 00:21:12;;;;;;;2.13;1.70;;;;;;;;;;5034525;28;20682;-87
2023/01/02 00:23:41;;;;;;;2.05;1.85;;;;;;;;;;5030338;28;20312;-88
2023/01/02 00:26:09;;;;;;;3.90;2.20;;;;;;;;;;5035974;28;20731;-87
2023/01/02 00:28:37;;;;;;;3.72;1.60;;;;;;;;;;5017009;28;20620;-87
2023/01/02 00:31:07;;;;;;;1.50;1.40;;;;;;;;;;5018843;28;20194;-87
2023/01/02 00:33:36;;;;;;;1.98;1.42;;;;;;;;;;5001560;28;20226;-87
2023/01/02 00:36:06;;;;;;;2.47;1.70;;;;;;;;;;5039281;28;20182;-86
2023/01/02 00:38:34;;;;;;;3.53;2.15;;;;;;;;;;5024196;28;20218;-87
2023/01/02 00:41:03;;;;;;;3.35;1.90;;;;;;;;;;5017777;28;20215;-89
2023/01/02 00:43:35;;;;;;;5.32;2.53;;;;;;;;;;5016497;28;20279;-87
2023/01/02 00:46:05;;;;;;;3.83;2.08;;;;;;;;;;5014233;28;20210;-87
2023/01/02 00:48:32;;;;;;;1.70;1.58;;;;;;;;;;5027080;28;20223;-86
2023/01/02 00:51:00;;;;;;;3.15;1.90;;;;;;;;;;5016422;28;20235;-87
2023/01/02 00:53:27;;;;;;;2.90;2.45;;;;;;;;;;5016267;28;20306;-88
2023/01/02 00:56:03;;;;;;;4.35;2.22;;;;;;;;;;5017099;28;20715;-85
2023/01/02 00:58:31;;;;;;;6.20;2.13;;;;;;;;;;5018013;28;20262;-87
2023/01/02 01:00:58;;;;;;;1.88;1.63;;;;;;;;;;5016623;28;20233;-87
2023/01/02 01:03:26;;;;;;;3.30;1.85;;;;;;;;;;5016908;28;20239;-87
2023/01/02 01:05:53;;;;;;;2.60;1.75;;;;;;;;;;5017736;28;20306;-87
2023/01/02 01:08:21;;;;;;;3.17;2.10;;;;;;;;;;5016723;28;20265;-88
2023/01/02 01:10:50;;;;;;;3.05;1.98;;;;;;;;;;5008118;28;20224;-87
2023/01/02 01:13:19;;;;;;;2.90;1.75;;;;;;;;;;4998492;28;20210;-88
2023/01/02 01:15:47;;;;;;;2.45;1.83;;;;;;;;;;5013092;28;20259;-87
2023/01/02 01:18:14;;;;;;;4.05;2.13;;;;;;;;;;5016857;28;20204;-87
2023/01/02 01:20:42;;;;;;;3.47;1.60;;;;;;;;;;5017898;28;20258;-88
2023/01/02 01:23:09;;;;;;;1.83;1.70;;;;;;;;;;5017222;28;20231;-87
2023/01/02 01:25:38;;;;;;;2.20;1.70;;;;;;;;;;5016502;28;20200;-87
2023/01/02 01:28:05;;;;;;;5.22;2.53;;;;;;;;;;5037246;28;20317;-87
2023/01/02 01:30:34;;;;;;;3.10;2.60;;;;;;;;;;5026080;28;20227;-87
2023/01/02 01:33:02;;;;;;;2.92;2.50;;;;;;;;;;5019583;28;20220;-87
2023/01/02 01:35:29;;;;;;;2.08;1.73;;;;;;;;;;5025407;28;20234;-86
2023/01/02 01:37:57;;;;;;;3.78;2.50;;;;;;;;;;5019635;28;20298;-88
2023/01/02 01:40:24;;;;;;;2.75;2.53;;;;;;;;;;5020252;28;20270;-88
2023/01/02 01:42:54;;;;;;;2.20;1.80;;;;;;;;;;5020178;28;20278;-87
2023/01/02 01:45:21;;;;;;;3.97;2.47;;;;;;;;;;5019861;28;20234;-88
2023/01/02 01:47:53;;;;;;;3.05;2.13;;;;;;;;;;5020692;28;20215;-87
2023/01/02 01:50:24;;;;;;;2.60;2.35;;;;;;;;;;5019550;28;20250;-86
2023/01/02 01:52:56;;;;;;;3.35;1.73;;;;;;;;;;5020475;28;20278;-87
2023/01/02 01:55:27;;;;;;;3.30;1.92;;;;;;;;;;5020649;28;20310;-88
2023/01/02 01:57:58;;;;;;;3.55;1.85;;;;;;;;;;5019652;28;20183;-86
2023/01/02 02:00:25;;;;;;;4.20;2.17;;;;;;;;;;5019928;28;20628;-86
2023/01/02 02:02:59;;;;;;;1.70;1.60;;;;;;;;;;5019328;28;20273;-86
2023/01/02 02:05:30;;;;;;;3.90;2.45;;;;;;;;;;5029834;28;20585;-87
2023/01/02 02:08:09;;;;;;;2.40;2.13;;;;;;;;;;5032887;28;20246;-87
2023/01/02 02:10:38;;;;;;;2.83;2.38;;;;;;;;;;5015958;28;20193;-87
2023/01/02 02:13:05;;;;;;;2.70;1.70;;;;;;;;;;5014903;28;20211;-87
2023/01/02 02:15:43;;;;;;;2.88;2.00;;;;;;;;;;5026703;28;20371;-87
2023/01/02 02:18:26;;;;;;;2.88;1.85;;;;;;;;;;5014745;28;20270;-86
2023/01/02 02:20:57;;;;;;;2.85;2.00;;;;;;;;;;5015851;28;20181;-87
2023/01/02 02:24:02;;;;;;;1.73;1.48;;;;;;;;;;5015520;28;20310;-87
2023/01/02 02:27:28;;;;;;;2.97;1.98;;;;;;;;;;5014582;28;20594;-87
2023/01/02 02:30:08;;;;;;;3.97;2.00;;;;;;;;;;4968529;28;20297;-87
2023/01/02 02:32:51;;;;;;;2.63;1.75;;;;;;;;;;5015283;28;20195;-86
2023/01/02 02:35:28;;;;;;;2.42;1.42;;;;;;;;;;5014354;28;20233;-86
2023/01/02 02:38:01;;;;;;;3.42;2.10;;;;;;;;;;5001527;28;20203;-87
2023/01/02 02:40:38;;;;;;;2.70;1.83;;;;;;;;;;5015408;28;20591;-86
2023/01/02 02:43:14;;;;;;;2.22;1.80;;;;;;;;;;5015779;28;20279;-87
2023/01/02 02:45:54;;;;;;;3.78;1.92;;;;;;;;;;5015300;28;20237;-86
2023/01/02 02:48:26;;;;;;;2.92;1.60;;;;;;;;;;5014365;28;20305;-88
2023/01/02 02:51:00;;;;;;;2.30;1.63;;;;;;;;;;5015015;28;20289;-87
2023/01/02 02:53:35;;;;;;;4.05;2.53;;;;;;;;;;5021939;28;20895;-87
2023/01/02 02:56:05;;;;;;;3.65;1.98;;;;;;;;;;5015263;28;20281;-87
2023/01/02 02:58:34;;;;;;;3.38;2.00;;;;;;;;;;5014237;28;20206;-87
2023/01/02 03:01:05;;;;;;;3.60;2.15;;;;;;;;;;5014764;28;20281;-87
2023/01/02 03:03:33;;;;;;;2.63;1.63;;;;;;;;;;5014237;28;20243;-87
2023/01/02 03:06:15;;;;;;;2.20;1.85;;;;;;;;;;5003479;28;20239;-87
2023/01/02 03:08:51;;;;;;;3.78;2.28;;;;;;;;;;5009811;28;20214;-88
2023/01/02 03:11:18;;;;;;;2.53;1.90;;;;;;;;;;5012838;28;20282;-87
2023/01/02 03:13:53;;;;;;;2.78;1.80;;;;;;;;;;5014849;28;20217;-88
2023/01/02 03:16:32;;;;;;;5.22;2.05;;;;;;;;;;5000490;28;20192;-87
2023/01/02 03:19:05;;;;;;;2.42;1.77;;;;;;;;;;5004033;28;20198;-87
2023/01/02 03:21:37;;;;;;;4.32;2.63;;;;;;;;;;5014734;28;20203;-88
2023/01/02 03:24:08;;;;;;;7.95;2.45;;;;;;;;;;5014495;28;20301;-88
2023/01/02 03:26:38;;;;;;;2.70;1.98;;;;;;;;;;5022236;28;20209;-87
2023/01/02 03:29:10;;;;;;;5.95;1.98;;;;;;;;;;5033964;28;20584;-88
2023/01/02 03:31:41;;;;;;;2.17;1.85;;;;;;;;;;5022756;28;20218;-87
2023/01/02 03:34:15;;;;;;;3.90;1.88;;;;;;;;;;5014357;28;20215;-86
2023/01/02 03:36:45;;;;;;;2.83;2.00;;;;;;;;;;5007710;28;20282;-88
2023/01/02 03:39:16;;;;;;;3.40;1.83;;;;;;;;;;5014221;28;20199;-86
2023/01/02 03:41:46;;;;;;;2.78;2.00;;;;;;;;;;5018546;28;20303;-86
2023/01/02 03:44:15;;;;;;;4.18;1.90;;;;;;;;;;5014261;28;20222;-87
2023/01/02 03:46:49;;;;;;;2.17;1.65;;;;;;;;;;5014161;28;20234;-87
2023/01/02 03:49:21;;;;;;;3.10;1.88;;;;;;;;;;5003920;28;20660;-86
2023/01/02 03:51:49;;;;;;;4.22;1.92;;;;;;;;;;4994658;28;20283;-86
2023/01/02 03:54:17;;;;;;;2.30;1.80;;;;;;;;;;5000556;28;20251;-87
2023/01/02 03:56:54;;;;;;;1.70;1.60;;;;;;;;;;5014565;28;20209;-88
2023/01/02 03:59:33;;;;;;;3.05;1.95;;;;;;;;;;5014321;28;20262;-88
2023/01/02 04:02:05;;;;;;;2.85;1.65;;;;;;;;;;5003559;28;20279;-89
2023/01/02 04:04:40;;;;;;;2.55;1.88;;;;;;;;;;4995003;28;20227;-88
2023/01/02 04:07:12;;;;;;;2.50;2.30;;;;;;;;;;4995105;28;20275;-87
2023/01/02 04:09:40;;;;;;;1.80;1.70;;;;;;;;;;5010628;28;20319;-87
2023/01/02 04:12:13;;;;;;;2.85;1.88;;;;;;;;;;4994886;28;20286;-87
2023/01/02 04:14:44;;;;;;;3.50;2.15;;;;;;;;;;4995358;28;21054;-87
2023/01/02 04:17:13;;;;;;;3.05;1.90;;;;;;;;;;4993047;28;20176;-88
2023/01/02 04:19:45;;;;;;;4.47;2.72;;;;;;;;;;5007289;28;20636;-87
2023/01/02 04:22:17;;;;;;;2.13;1.50;;;;;;;;;;4999126;28;20187;-88
2023/01/02 04:25:12;;;;;;;3.08;1.80;;;;;;;;;;5013420;28;20219;-88
2023/01/02 04:27:43;;;;;;;3.60;2.08;;;;;;;;;;5013352;28;20194;-88
2023/01/02 04:30:11;;;;;;;1.85;1.70;;;;;;;;;;5014560;28;20213;-88
2023/01/02 04:32:43;;;;;;;2.70;1.50;;;;;;;;;;5007597;28;20191;-87
2023/01/02 04:35:13;;;;;;;2.83;2.30;;;;;;;;;;5013778;28;20305;-87
2023/01/02 04:37:42;;;;;;;4.15;2.67;;;;;;;;;;5013530;28;20281;-88
2023/01/02 04:40:15;;;;;;;4.55;2.42;;;;;;;;;;5013375;28;20246;-88
2023/01/02 04:42:43;;;;;;;1.95;1.45;;;;;;;;;;5013053;28;20290;-88
2023/01/02 04:45:14;;;;;;;3.20;1.70;;;;;;;;;;5013749;28;20306;-87
2023/01/02 04:47:44;;;;;;;2.22;1.83;;;;;;;;;;5004711;28;20326;-88
2023/01/02 04:50:12;;;;;;;2.33;2.08;;;;;;;;;;5012239;28;20305;-87
2023/01/02 04:52:39;;;;;;;2.80;2.00;;;;;;;;;;5025349;28;20269;-87
2023/01/02 04:55:08;;;;;;;2.03;1.80;;;;;;;;;;5013461;28;20246;-86
2023/01/02 04:57:36;;;;;;;2.72;1.52;;;;;;;;;;5013891;28;20210;-88
2023/01/02 05:00:06;;;;;;;2.10;1.77;;;;;;;;;;5012997;28;20733;-87
2023/01/02 05:02:36;;;;;;;6.32;2.25;;;;;;;;;;5013783;28;20199;-88
2023/01/02 05:05:06;;;;;;;4.80;1.85;;;;;;;;;;5014082;28;20291;-88
2023/01/02 05:07:34;;;;;;;3.58;3.28;;;;;;;;;;5013182;28;20195;-87
2023/01/02 05:10:02;;;;;;;3.78;2.08;;;;;;;;;;5001353;28;20233;-87
2023/01/02 05:12:29;;;;;;;4.72;2.20;;;;;;;;;;4996845;28;20218;-88
2023/01/02 05:14:57;;;;;;;3.28;2.00;;;;;;;;;;4998034;28;20314;-88
2023/01/02 05:17:24;;;;;;;3.08;2.20;;;;;;;;;;4997494;28;20643;-88
2023/01/02 05:19:52;;;;;;;3.20;2.35;;;;;;;;;;5010702;28;20239;-87
2023/01/02 05:25:08;;;;;;;2.63;1.95;;;;;;;;;;5016105;28;20362;-87
2023/01/02 05:27:35;;;;;;;2.20;1.60;;;;;;;;;;5008879;28;20199;-88
2023/01/02 05:30:04;;;;;;;2.25;1.50;;;;;;;;;;5017154;28;20227;-88
2023/01/02 05:32:31;;;;;;;2.88;2.25;;;;;;;;;;5024240;28;20290;-88
2023/01/02 05:34:59;;;;;;;2.15;1.70;;;;;;;;;;5017046;28;20309;-88
2023/01/02 05:37:29;;;;;;;3.13;1.70;;;;;;;;;;5016311;28;20285;-88
2023/01/02 05:39:56;;;;;;;3.38;1.52;;;;;;;;;;5012977;28;20214;-87
2023/01/02 05:42:24;;;;;;;3.35;1.80;;;;;;;;;;4996724;28;20223;-88
2023/01/02 05:44:51;;;;;;;1.67;1.45;;;;;;;;;;5010929;28;20301;-88
2023/01/02 05:47:19;;;;;;;2.05;1.38;;;;;;;;;;5020892;28;20205;-88
2023/01/02 05:49:46;;;;;;;2.30;1.67;;;;;;;;;;5001270;28;20323;-87
2023/01/02 05:52:14;;;;;;;1.60;1.50;;;;;;;;;;5006314;28;20334;-87
2023/01/02 05:54:43;;;;;;;1.92;1.45;;;;;;;;;;5006763;28;20247;-87
2023/01/02 05:57:10;;;;;;;1.75;1.50;;;;;;;;;;4996497;28;20246;-87
2023/01/02 05:59:37;;;;;;;1.77;1.23;;;;;;;;;;5009313;28;20670;-86
2023/01/02 06:02:05;;;;;;;1.83;1.73;;;;;;;;;;5015047;28;20290;-87
2023/01/02 06:04:32;;;;;;;3.90;1.90;;;;;;;;;;5014919;28;20289;-88
2023/01/02 06:07:00;;;;;;;2.80;1.80;;;;;;;;;;5015778;28;20198;-88
2023/01/02 06:09:27;;;;;;;2.90;2.00;;;;;;;;;;5015696;28;20227;-88
2023/01/02 06:11:56;;;;;;;3.78;1.70;;;;;;;;;;5013673;28;20286;-87
2023/01/02 06:14:24;;;;;;;2.83;1.55;;;;;;;;;;5009494;28;20227;-85
2023/01/02 06:16:51;;;;;;;3.03;1.38;;;;;;;;;;5011227;28;20203;-86
2023/01/02 06:19:19;;;;;;;1.70;1.50;;;;;;;;;;5009984;28;20290;-87
2023/01/02 06:21:46;;;;;;;2.83;2.10;;;;;;;;;;5010553;28;20199;-87
2023/01/02 06:24:14;;;;;;;1.85;1.42;;;;;;;;;;5012509;28;20243;-88
2023/01/02 06:26:41;;;;;;;3.15;2.20;;;;;;;;;;5013203;28;20231;-87
2023/01/02 06:29:10;;;;;;;2.10;1.90;;;;;;;;;;5014522;28;20278;-87
2023/01/02 06:31:38;;;;;;;1.45;1.35;;;;;;;;;;5023605;28;20309;-87
2023/01/02 06:34:05;;;;;;;2.58;1.70;;;;;;;;;;5015291;28;20310;-87
2023/01/02 06:36:35;;;;;;;3.50;1.98;;;;;;;;;;5014931;28;20230;-87
2023/01/02 06:39:02;;;;;;;2.85;1.40;;;;;;;;;;5005100;28;20191;-87
2023/01/02 06:41:30;;;;;;;2.63;1.50;;;;;;;;;;5015434;28;20285;-86
2023/01/02 06:43:57;;;;;;;1.98;1.38;;;;;;;;;;5014644;28;20305;-88
2023/01/02 06:46:26;;;;;;;3.08;1.58;;;;;;;;;;5014413;28;20235;-87
2023/01/02 06:48:54;;;;;;;2.72;1.70;;;;;;;;;;5016303;28;20221;-87
2023/01/02 06:51:23;;;;;;;1.27;1.05;;;;;;;;;;5034774;28;20280;-88
2023/01/02 06:53:50;;;;;;;4.25;1.73;;;;;;;;;;5026929;28;20225;-88
2023/01/02 06:56:20;;;;;;;2.17;1.50;;;;;;;;;;5015681;28;20234;-88
2023/01/02 06:58:48;;;;;;;2.95;2.22;;;;;;;;;;5015325;28;20653;-88
2023/01/02 07:01:20;;;;;;;2.10;1.98;;;;;;;;;;5015574;28;20225;-88
2023/01/02 07:03:49;;;;;;;1.60;1.17;;;;;;;;;;5013051;28;20515;-88
2023/01/02 07:06:19;;;;;;;2.17;1.30;;;;;;;;;;5010867;28;20215;-88
2023/01/02 07:08:47;;;;;;;2.03;1.63;;;;;;;;;;5011001;28;20573;-88
2023/01/02 07:11:17;;;;;;;3.35;1.50;;;;;;;;;;5019821;28;20305;-88
2023/01/02 07:13:45;;;;;;;4.35;1.48;;;;;;;;;;5017990;28;20225;-89
2023/01/02 07:16:16;;;;;;;1.92;1.40;;;;;;;;;;5019714;28;20204;-88
2023/01/02 07:18:44;;;;;;;2.70;1.88;;;;;;;;;;5024956;28;20558;-88
2023/01/02 07:21:14;;;;;;;1.92;1.30;;;;;;;;;;5009981;28;20286;-88
2023/01/02 07:23:42;;;;;;;1.40;1.30;;;;;;;;;;5007030;28;20570;-88
2023/01/02 07:26:09;;;;;;;1.38;1.20;;;;;;;;;;5015497;28;20215;-88
2023/01/02 07:28:38;;;;;;;2.00;1.42;;;;;;;;;;5015064;28;20198;-88
2023/01/02 07:31:07;;;;;;;5.05;3.15;;;;;;;;;;5013988;28;20229;-88
2023/01/02 07:33:36;;;;;;;1.65;1.25;;;;;;;;;;5031087;28;20241;-88
2023/01/02 07:36:06;;;;;;;1.33;1.23;;;;;;;;;;5033966;28;20202;-88
2023/01/02 07:38:37;;;;;;;1.75;1.50;;;;;;;;;;5023737;28;20286;-89
2023/01/02 07:41:04;;;;;;;2.53;1.40;;;;;;;;;;5014772;28;20569;-88
2023/01/02 07:43:32;;;;;;;6.18;2.05;;;;;;;;;;5015239;28;20310;-88
2023/01/02 07:46:05;;;;;;;4.60;1.70;;;;;;;;;;5015172;28;20234;-89
2023/01/02 07:48:32;;;;;;;2.33;1.70;;;;;;;;;;5014715;28;20264;-90
2023/01/02 07:51:01;;;;;;;2.05;1.60;;;;;;;;;;5014695;28;20314;-88
2023/01/02 07:53:29;;;;;;;4.60;2.15;;;;;;;;;;5015471;28;20222;-88
2023/01/02 07:55:59;;;;;;;2.83;1.83;;;;;;;;;;5034553;28;20222;-90
2023/01/02 07:58:28;;;;;;;3.70;1.88;;;;;;;;;;5030663;28;20205;-89
2023/01/02 08:00:55;;;;;;;3.15;2.53;;;;;;;;;;5024091;28;20251;-89
2023/01/02 08:03:23;;;;;;;1.83;1.73;;;;;;;;;;5015856;28;20207;-89
2023/01/02 08:05:51;;;;;;;2.60;1.60;;;;;;;;;;5015271;28;20294;-88
2023/01/02 08:08:19;;;;;;;3.92;1.30;;;;;;;;;;5014078;28;20287;-88
2023/01/02 08:10:46;;;;;;;2.45;1.60;;;;;;;;;;5012777;28;20337;-88
2023/01/02 08:13:15;;;;;;;2.05;1.80;;;;;;;;;;5017337;28;20646;-89
2023/01/02 08:15:42;;;;;;;5.43;2.42;;;;;;;;;;5017558;28;20206;-89
2023/01/02 08:18:10;;;;;;;2.65;1.63;;;;;;;;;;5017827;28;20231;-89
2023/01/02 08:20:38;;;;;;;4.47;2.10;;;;;;;;;;5017782;28;20266;-89
2023/01/02 08:23:05;;;;;;;2.88;2.60;;;;;;;;;;5017278;28;20199;-89
2023/01/02 08:25:33;;;;;;;4.80;1.70;;;;;;;;;;5033531;28;20255;-89
2023/01/02 08:28:00;;;;;;;2.03;1.63;;;;;;;;;;5032683;28;20191;-89
2023/01/02 08:30:29;;;;;;;3.28;1.88;;;;;;;;;;5018196;28;20565;-89
2023/01/02 08:32:57;;;;;;;2.78;2.20;;;;;;;;;;5018603;28;20219;-89
2023/01/02 08:35:24;;;;;;;2.00;1.75;;;;;;;;;;5017781;28;20618;-89
2023/01/02 08:37:52;;;;;;;1.90;1.75;;;;;;;;;;5018468;28;20652;-89
2023/01/02 08:40:19;;;;;;;2.47;1.80;;;;;;;;;;5023641;28;20191;-89
2023/01/02 08:42:58;;;;;;;2.00;1.60;;;;;;;;;;5028802;28;20620;-89
2023/01/02 08:45:25;;;;;;;2.03;1.58;;;;;;;;;;5018912;28;20242;-89
2023/01/02 08:47:54;;;;;;;3.17;1.75;;;;;;;;;;5022740;28;20199;-88
2023/01/02 08:50:22;;;;;;;3.67;2.53;;;;;;;;;;5022699;28;20624;-88
2023/01/02 08:52:49;;;;;;;3.58;1.92;;;;;;;;;;5021866;28;20246;-89
2023/01/02 08:55:17;;;;;;;4.90;1.80;;;;;;;;;;5016195;28;20230;-89
2023/01/02 08:57:45;;;;;;;2.30;1.55;;;;;;;;;;5018548;28;20203;-89
2023/01/02 09:00:13;;;;;;;1.77;1.50;;;;;;;;;;5022260;28;20285;-88
2023/01/02 09:02:41;;;;;;;5.05;2.45;;;;;;;;;;5021602;28;20234;-89
2023/01/02 09:05:10;;;;;;;4.18;1.88;;;;;;;;;;5010119;28;20215;-89
2023/01/02 09:07:38;;;;;;;3.50;1.88;;;;;;;;;;5004349;28;20272;-89
2023/01/02 09:10:07;;;;;;;4.07;2.13;;;;;;;;;;5022873;28;20281;-88
2023/01/02 09:12:35;;;;;;;3.28;2.05;;;;;;;;;;5026068;28;20257;-88
2023/01/02 09:15:03;;;;;;;4.10;2.67;;;;;;;;;;5022732;28;20281;-88
2023/01/02 09:17:31;;;;;;;4.00;1.85;;;;;;;;;;5023348;28;20546;-89
2023/01/02 09:19:58;;;;;;;2.63;1.92;;;;;;;;;;5013306;28;20234;-90
2023/01/02 09:22:27;;;;;;;2.47;1.80;;;;;;;;;;5027728;28;20222;-89
2023/01/02 09:24:54;;;;;;;5.60;1.88;;;;;;;;;;5015317;28;20278;-89
2023/01/02 09:27:22;;;;;;;10.85;2.60;;;;;;;;;;5024004;28;20215;-89
2023/01/02 09:29:49;;;;;;;2.35;1.85;;;;;;;;;;5021002;28;20199;-89
2023/01/02 09:32:17;;;;;;;3.15;1.80;;;;;;;;;;5023351;28;20222;-89
2023/01/02 09:34:49;;;;;;;3.47;2.05;;;;;;;;;;5016484;28;20216;-89
2023/01/02 09:37:17;;;;;;;4.25;1.83;;;;;;;;;;5037467;28;20205;-89
2023/01/02 09:39:46;;;;;;;2.53;1.60;;;;;;;;;;5039108;28;20867;-90
2023/01/02 09:42:16;;;;;;;3.88;1.75;;;;;;;;;;5024095;28;20209;-89
2023/01/02 09:44:47;;;;;;;3.72;2.28;;;;;;;;;;5031847;28;20313;-89
2023/01/02 09:47:18;;;;;;;3.60;2.15;;;;;;;;;;5031960;28;20226;-89
2023/01/02 09:49:49;;;;;;;7.97;2.67;;;;;;;;;;5026637;28;20191;-90
2023/01/02 09:52:21;;;;;;;5.15;2.17;;;;;;;;;;5024395;28;20207;-90
2023/01/02 09:54:50;;;;;;;3.60;1.63;;;;;;;;;;5021549;28;20225;-88
2023/01/02 09:57:32;;;;;;;3.72;1.70;;;;;;;;;;5020107;28;20237;-88
2023/01/02 10:00:05;;;;;;;4.72;1.35;;;;;;;;;;5039968;28;20218;-88
2023/01/02 10:02:51;;;;;;;3.63;1.63;;;;;;;;;;5041913;28;20193;-88
2023/01/02 10:05:48;;;;;;;4.45;2.00;;;;;;;;;;5040614;28;20325;-88
2023/01/02 10:08:22;;;;;;;2.45;1.40;;;;;;;;;;5006361;28;20656;-89
2023/01/02 10:10:57;;;;;;;2.53;2.33;;;;;;;;;;5019719;28;20222;-88
2023/01/02 10:13:30;;;;;;;2.45;1.85;;;;;;;;;;5016496;28;20265;-88
2023/01/02 10:16:00;;;;;;;3.80;1.83;;;;;;;;;;5016228;28;20295;-89
2023/01/02 10:18:31;;;;;;;3.42;1.80;;;;;;;;;;5008557;28;20222;-87
2023/01/02 10:21:16;;;;;;;2.45;2.05;;;;;;;;;;5020725;28;20191;-88
2023/01/02 10:24:00;;;;;;;3.13;1.70;;;;;;;;;;5019940;28;20258;-88
2023/01/02 10:26:34;;;;;;;2.55;1.73;;;;;;;;;;5018227;28;20286;-89
2023/01/02 10:29:10;;;;;;;2.08;1.60;;;;;;;;;;5019800;28;20207;-88
2023/01/02 10:31:42;;;;;;;2.20;1.90;;;;;;;;;;5020562;28;20218;-89
2023/01/02 10:34:15;;;;;;;8.35;1.80;;;;;;;;;;5020001;28;20654;-89
2023/01/02 10:36:45;;;;;;;4.22;1.70;;;;;;;;;;5020566;28;20191;-89
2023/01/02 10:39:16;;;;;;;2.90;1.38;;;;;;;;;;5020076;28;20294;-89
2023/01/02 10:41:49;;;;;;;2.13;1.50;;;;;;;;;;5020710;28;20229;-89
2023/01/02 10:44:23;;;;;;;1.35;1.25;;;;;;;;;;5020972;28;20302;-89
2023/01/02 10:46:56;;;;;;;2.78;1.83;;;;;;;;;;5022134;28;20226;-89
2023/01/02 10:49:38;;;;;;;3.03;1.65;;;;;;;;;;5019622;28;20222;-89
2023/01/02 10:52:13;;;;;;;6.53;2.13;;;;;;;;;;5021927;28;20210;-89
2023/01/02 10:54:53;;;;;;;3.88;2.25;;;;;;;;;;5019809;28;20219;-89
2023/01/02 10:57:34;;;;;;;7.03;1.83;;;;;;;;;;5019936;28;20211;-89
2023/01/02 11:00:07;;;;;;;2.22;1.60;;;;;;;;;;5020189;28;20211;-88
2023/01/02 11:02:40;;;;;;;3.58;1.80;;;;;;;;;;5012221;28;20227;-88
2023/01/02 11:05:18;;;;;;;7.18;2.25;;;;;;;;;;5002399;28;20592;-88
2023/01/02 11:07:49;;;;;;;2.50;1.70;;;;;;;;;;5019936;28;20215;-89
2023/01/02 11:10:24;;;;;;;2.10;1.90;;;;;;;;;;5019858;28;20215;-89
2023/01/02 11:13:03;;;;;;;5.07;2.05;;;;;;;;;;5008236;28;20207;-88
2023/01/02 11:15:34;;;;;;;2.08;1.75;;;;;;;;;;5007681;28;20261;-88
2023/01/02 11:18:02;;;;;;;2.60;1.70;;;;;;;;;;5019696;28;20202;-88
2023/01/02 11:20:34;;;;;;;5.05;2.33;;;;;;;;;;5019545;28;20289;-88
2023/01/02 11:23:03;;;;;;;3.78;1.80;;;;;;;;;;5030960;28;20198;-88
2023/01/02 11:25:38;;;;;;;2.75;1.60;;;;;;;;;;5014364;28;20203;-88
2023/01/02 11:28:15;;;;;;;1.58;1.48;;;;;;;;;;5000915;28;20199;-88
2023/01/02 11:30:45;;;;;;;5.05;1.98;;;;;;;;;;5003661;28;20183;-89
2023/01/02 11:33:25;;;;;;;2.13;1.48;;;;;;;;;;4998703;28;20191;-88
2023/01/02 11:35:55;;;;;;;4.60;2.08;;;;;;;;;;4998415;28;20219;-88
2023/01/02 11:38:26;;;;;;;1.65;1.55;;;;;;;;;;5010044;28;20211;-88
2023/01/02 11:41:00;;;;;;;3.83;2.10;;;;;;;;;;5009530;28;20186;-88
2023/01/02 11:43:47;;;;;;;3.95;1.77;;;;;;;;;;5017483;28;20230;-88
2023/01/02 11:46:28;;;;;;;2.05;1.70;;;;;;;;;;5008786;28;20192;-89
2023/01/02 11:49:05;;;;;;;5.43;2.28;;;;;;;;;;5013018;28;20293;-89
2023/01/02 11:51:41;;;;;;;6.65;2.33;;;;;;;;;;5017107;28;20229;-88
2023/01/02 11:54:14;;;;;;;3.55;2.13;;;;;;;;;;5016742;28;20280;-88
2023/01/02 11:56:44;;;;;;;3.22;1.50;;;;;;;;;;5018595;28;20722;-88
2023/01/02 11:59:18;;;;;;;3.88;1.48;;;;;;;;;;5017519;28;20226;-88
2023/01/02 12:01:55;;;;;;;2.55;1.70;;;;;;;;;;5035826;28;20282;-88
2023/01/02 12:04:23;;;;;;;5.18;2.05;;;;;;;;;;5037978;28;20245;-88
2023/01/02 12:07:08;;;;;;;1.92;1.60;;;;;;;;;;5037937;28;20229;-88
2023/01/02 12:09:47;;;;;;;4.10;1.70;;;;;;;;;;5033632;28;20270;-88
2023/01/02 12:12:33;;;;;;;3.55;1.60;;;;;;;;;;5008342;28;20198;-88
2023/01/02 12:15:45;;;;;;;3.80;1.40;;;;;;;;;;5010822;28;20310;-88
2023/01/02 12:18:26;;;;;;;1.88;1.70;;;;;;;;;;5006474;28;20253;-88
2023/01/02 12:21:00;;;;;;;6.43;1.52;;;;;;;;;;5014984;28;20195;-88
2023/01/02 12:24:02;;;;;;;1.63;1.38;;;;;;;;;;5002962;28;20214;-86
2023/01/02 12:27:00;;;;;;;1.00;1.00;;;;;;;;;;4996962;28;20207;-87
2023/01/02 12:30:11;;;;;;;3.33;1.63;;;;;;;;;;5001726;28;20294;-86
2023/01/02 12:33:12;;;;;;;1.60;1.50;;;;;;;;;;5004380;28;20179;-87
2023/01/02 12:36:16;;;;;;;1.33;1.15;;;;;;;;;;5007090;28;20234;-89
2023/01/02 12:38:59;;;;;;;1.42;1.27;;;;;;;;;;5005122;28;20217;-88
2023/01/02 12:41:31;;;;;;;1.08;0.98;;;;;;;;;;5017225;28;20230;-89
2023/01/02 12:44:40;;;;;;;1.63;1.52;;;;;;;;;;5005505;28;20258;-88
2023/01/02 12:47:23;;;;;;;0.98;0.98;;;;;;;;;;5016025;28;20281;-87
2023/01/02 12:50:03;;;;;;;0.88;0.88;;;;;;;;;;5021912;28;20282;-88
2023/01/02 12:52:54;;;;;;;1.17;1.05;;;;;;;;;;5017724;28;20234;-88
2023/01/02 12:55:36;;;;;;;1.00;1.00;;;;;;;;;;5016835;28;20287;-88
2023/01/02 12:58:23;;;;;;;0.70;0.70;;;;;;;;;;5006704;28;20621;-88
2023/01/02 13:01:01;;;;;;;0.60;0.60;;;;;;;;;;4997793;28;20215;-88
2023/01/02 13:03:48;;;;;;;0.57;0.57;;;;;;;;;;5012216;28;20223;-89
2023/01/02 13:06:19;;;;;;;0.38;0.38;;;;;;;;;;5011518;28;20234;-89
2023/01/02 13:08:53;;;;;;;0.43;0.43;;;;;;;;;;5015279;28;20550;-89
2023/01/02 13:11:28;;;;;;;0.40;0.40;;;;;;;;;;5014906;28;20638;-88
2023/01/02 13:13:58;;;;;;;0.90;0.57;;;;;;;;;;5009316;28;20250;-91
2023/01/02 13:16:26;;;;;;;0.40;0.40;;;;;;;;;;4997976;28;20222;-90
2023/01/02 13:19:21;;;;;;;1.15;0.60;;;;;;;;;;4996620;28;20196;-90
2023/01/02 13:21:53;;;;;;;0.47;0.47;;;;;;;;;;4998973;28;20175;-89
2023/01/02 13:24:24;;;;;;;0.40;0.40;;;;;;;;;;4999296;28;20250;-89
2023/01/02 13:26:53;;;;;;;0.55;0.55;;;;;;;;;;4999015;28;20208;-89
2023/01/02 13:29:28;;;;;;;0.40;0.40;;;;;;;;;;4997970;28;20203;-89
2023/01/02 13:31:56;;;;;;;0.32;0.32;;;;;;;;;;4999247;28;20187;-90
2023/01/02 13:34:28;;;;;;;0.60;0.50;;;;;;;;;;5003366;28;20223;-88
2023/01/02 13:37:06;;;;;;;0.57;0.57;;;;;;;;;;5019197;28;20282;-90
2023/01/02 13:39:47;;;;;;;0.50;0.45;;;;;;;;;;5019904;28;20199;-90
2023/01/02 13:45:18;;;;;;;0.38;0.38;;;;;;;;;;5034334;28;20210;-91
2023/01/02 13:47:50;;;;;;;0.40;0.40;;;;;;;;;;5039830;28;20274;-90
2023/01/02 13:50:23;;;;;;;0.50;0.50;;;;;;;;;;5037004;28;20203;-90
2023/01/02 13:53:05;;;;;;;0.50;0.35;;;;;;;;;;5032443;28;20293;-90
2023/01/02 13:55:34;;;;;;;0.40;0.40;;;;;;;;;;5044126;28;20311;-89
2023/01/02 13:58:43;;;;;;;0.80;0.70;;;;;;;;;;5023597;28;20184;-92
2023/01/02 14:01:41;;;;;;;0.45;0.45;;;;;;;;;;5009452;28;20258;-91
2023/01/02 14:04:30;;;;;;;0.80;0.80;;;;;;;;;;5016606;28;20222;-91
2023/01/02 14:07:47;;;;;;;0.85;0.75;;;;;;;;;;5042243;28;20210;-92
2023/01/02 14:10:32;;;;;;;1.20;1.10;;;;;;;;;;5029687;28;20207;-91
2023/01/02 14:13:10;;;;;;;0.63;0.63;;;;;;;;;;5031032;28;20305;-91
2023/01/02 14:16:12;;;;;;;1.48;0.47;;;;;;;;;;5012351;28;20271;-91
2023/01/02 14:18:40;;;;;;;0.60;0.60;;;;;;;;;;5021295;28;20269;-91
2023/01/02 14:21:08;;;;;;;0.80;0.80;;;;;;;;;;5040908;28;20210;-91
2023/01/02 14:23:40;;;;;;;0.80;0.80;;;;;;;;;;5032867;28;20274;-91
2023/01/02 14:26:23;;;;;;;0.47;0.47;;;;;;;;;;5045299;28;20190;-91
2023/01/02 14:28:51;;;;;;;0.50;0.50;;;;;;;;;;5047458;28;20289;-91
2023/01/02 14:31:28;;;;;;;0.40;0.40;;;;;;;;;;5031976;28;20199;-91
2023/01/02 14:33:56;;;;;;;0.65;0.65;;;;;;;;;;5025902;28;20239;-92
2023/01/02 14:36:36;;;;;;;0.50;0.50;;;;;;;;;;5028982;28;20238;-91
2023/01/02 14:39:05;;;;;;;0.45;0.45;;;;;;;;;;5031632;28;20193;-91
2023/01/02 14:45:18;;;;;;;1.90;1.80;;;;;;;;;;4992771;28;20278;-90
2023/01/02 14:47:51;;;;;;;0.93;0.93;;;;;;;;;;4993643;28;20200;-91
2023/01/02 14:50:24;;;;;;;0.70;0.70;;;;;;;;;;5021107;28;20232;-90
2023/01/02 14:53:02;;;;;;;0.80;0.68;;;;;;;;;;5038643;28;20198;-92
2023/01/02 14:55:32;;;;;;;0.70;0.70;;;;;;;;;;5032291;28;20226;-91
2023/01/02 14:58:01;;;;;;;0.75;0.75;;;;;;;;;;5034975;28;20203;-93
2023/01/02 15:00:33;;;;;;;0.57;0.57;;;;;;;;;;5016721;28;20207;-92
2023/01/02 15:03:16;;;;;;;0.60;0.60;;;;;;;;;;5032743;28;20202;-92
2023/01/02 15:05:48;;;;;;;0.70;0.70;;;;;;;;;;5031029;28;20199;-92
2023/01/02 15:08:19;;;;;;;0.77;0.77;;;;;;;;;;5028625;28;20196;-91
2023/01/02 15:13:02;;;;;;;0.60;0.60;;;;;;;;;;5039449;28;20207;-89
2023/01/02 15:13:54;;;;;;;0.60;0.60;;;;;;;;;;5049125;28;20538;-90
2023/01/02 15:16:23;;;;;;;0.70;0.70;;;;;;;;;;5041573;28;20242;-90
2023/01/02 15:18:56;;;;;;;0.50;0.50;;;;;;;;;;5019353;28;20242;-91
2023/01/02 15:21:28;;;;;;;0.70;0.70;;;;;;;;;;5027921;28;20298;-92
2023/01/02 15:23:59;;;;;;;0.70;0.70;;;;;;;;;;5024221;28;20225;-91
2023/01/02 15:26:29;;;;;;;0.52;0.52;;;;;;;;;;5024203;28;20187;-92